Time;durP1;ratioP1;P1;durP2;ratioP2;P2;SDS_P1;SDS_P2;PMS_P1;PMS_P2;Temp;Humidity;BMP_temperature;BMP_pressure;BME280_temperature;BME280_humidity;BME280_pressure;Samples;Min_cycle;Max_cycle;Signal;HPM_P1;HPM_P2
2022/11/27 00:01:35;;;;;;;;;79.33;58.33;;;;;9.74;64.66;100607.16;5100829;28;9089;-75
2022/11/27 00:04:04;;;;;;;;;90.33;73.00;;;;;9.60;64.92;100607.72;5096549;28;9810;-74
2022/11/27 00:06:35;;;;;;;;;90.00;72.33;;;;;9.94;64.12;100609.25;5089980;28;9019;-76
2022/11/27 00:09:06;;;;;;;;;79.33;60.33;;;;;10.03;63.49;100604.22;5087722;28;8934;-75
2022/11/27 00:11:34;;;;;;;;;90.25;72.75;;;;;10.21;63.07;100605.41;5089437;28;9043;-75
2022/11/27 00:14:03;;;;;;;;;91.00;68.00;;;;;10.45;62.43;100603.31;5087510;28;8840;-77
2022/11/27 00:16:32;;;;;;;;;90.00;69.00;;;;;10.61;62.04;100598.34;5088629;28;9137;-75
2022/11/27 00:19:01;;;;;;;;;89.00;67.67;;;;;10.78;61.83;100604.69;5086518;28;9068;-75
2022/11/27 00:21:32;;;;;;;;;87.67;67.67;;;;;10.96;61.38;100613.66;5088732;28;8926;-76
2022/11/27 00:24:04;;;;;;;;;88.00;66.67;;;;;11.11;60.63;100606.03;5088484;28;9007;-76
2022/11/27 00:26:33;;;;;;;;;77.33;62.67;;;;;11.18;60.56;100607.88;5086976;28;9049;-76
2022/11/27 00:29:06;;;;;;;;;85.00;64.33;;;;;11.26;60.25;100615.81;5086753;28;8938;-75
2022/11/27 00:31:36;;;;;;;;;86.50;65.75;;;;;11.32;59.48;100608.97;5077956;28;9026;-77
2022/11/27 00:34:07;;;;;;;;;84.67;67.00;;;;;11.38;59.84;100616.00;5067834;28;9652;-75
2022/11/27 00:36:37;;;;;;;;;83.50;64.50;;;;;11.46;58.95;100616.97;5044304;28;9161;-74
2022/11/27 00:39:07;;;;;;;;;85.00;66.00;;;;;11.48;58.36;100624.84;5088051;28;8878;-74
2022/11/27 00:41:35;;;;;;;;;92.33;72.00;;;;;11.56;58.56;100617.09;5087501;28;8956;-75
2022/11/27 00:44:05;;;;;;;;;84.25;68.50;;;;;11.61;58.66;100621.53;5086792;28;9007;-75
2022/11/27 00:46:35;;;;;;;;;83.00;67.00;;;;;11.68;58.66;100618.13;5065443;28;8867;-75
2022/11/27 00:49:05;;;;;;;;;78.33;58.00;;;;;11.75;57.94;100624.28;5049108;28;8844;-74
2022/11/27 00:51:34;;;;;;;;;82.25;63.00;;;;;11.79;57.78;100626.09;5064721;28;9683;-76
2022/11/27 00:54:03;;;;;;;;;89.00;68.33;;;;;11.83;57.49;100619.16;5071757;28;8881;-74
2022/11/27 00:56:36;;;;;;;;;59.00;46.00;;;;;11.65;57.11;100619.84;5050238;28;9263;-74
2022/11/27 00:59:05;;;;;;;;;81.00;63.67;;;;;11.56;57.31;100612.75;5049417;28;9061;-75
2022/11/27 01:01:37;;;;;;;;;87.25;65.50;;;;;11.39;58.01;100606.44;5065318;28;8970;-75
2022/11/27 01:04:07;;;;;;;;;83.67;63.00;;;;;10.84;59.72;100615.22;5048447;28;8893;-75
2022/11/27 01:06:37;;;;;;;;;81.00;61.25;;;;;10.20;61.81;100619.31;5065218;28;8954;-76
2022/11/27 01:09:06;;;;;;;;;85.00;64.00;;;;;10.13;62.21;100620.91;5063950;28;8912;-75
2022/11/27 01:11:37;;;;;;;;;83.00;64.25;;;;;10.49;61.04;100627.66;5065869;28;9103;-76
2022/11/27 01:14:09;;;;;;;;;83.00;64.50;;;;;10.63;61.14;100613.16;5048125;28;8863;-76
2022/11/27 01:16:37;;;;;;;;;77.67;63.00;;;;;9.77;64.03;100616.75;5065425;28;9083;-74
2022/11/27 01:19:12;;;;;;;;;87.33;67.67;;;;;9.54;64.85;100614.56;5070135;28;8946;-76
2022/11/27 01:21:41;;;;;;;;;90.00;69.67;;;;;9.89;63.66;100603.09;5068802;28;9177;-74
2022/11/27 01:24:11;;;;;;;;;83.00;65.00;;;;;10.18;62.59;100600.16;5087892;28;9166;-75
2022/11/27 01:26:42;;;;;;;;;93.00;70.33;;;;;10.06;62.68;100593.88;5086775;28;9002;-74
2022/11/27 01:29:11;;;;;;;;;81.00;62.75;;;;;10.23;62.17;100595.91;5087430;28;9357;-76
2022/11/27 01:31:40;;;;;;;;;82.50;64.25;;;;;10.41;61.90;100588.44;5087561;28;8994;-75
2022/11/27 01:34:14;;;;;;;;;79.67;63.00;;;;;10.61;61.35;100595.72;5087855;28;8932;-75
2022/11/27 01:36:42;;;;;;;;;84.67;65.67;;;;;10.57;61.21;100586.06;5052131;28;9127;-75
2022/11/27 01:39:15;;;;;;;;;86.33;67.00;;;;;10.74;60.68;100587.25;5087937;28;8946;-74
2022/11/27 01:41:47;;;;;;;;;86.00;65.00;;;;;10.83;60.50;100582.16;5066280;28;9067;-76
2022/11/27 01:44:49;;;;;;;;;89.25;68.00;;;;;11.11;59.90;100587.75;5072675;28;8977;-75
2022/11/27 01:47:31;;;;;;;;;85.00;65.33;;;;;11.18;59.47;100578.31;5067561;28;9565;-75
2022/11/27 01:50:10;;;;;;;;;84.33;65.33;;;;;11.17;59.25;100576.53;5051084;28;9241;-75
2022/11/27 01:52:44;;;;;;;;;84.00;64.33;;;;;11.19;59.38;100580.03;5102199;28;9208;-77
2022/11/27 01:55:19;;;;;;;;;91.33;67.67;;;;;11.23;58.61;100574.03;5086186;28;9017;-75
2022/11/27 01:57:53;;;;;;;;;86.67;65.67;;;;;11.33;58.30;100573.28;5072082;28;9206;-75
2022/11/27 02:00:23;;;;;;;;;69.67;50.67;;;;;11.06;59.69;100573.78;5074748;28;9205;-74
2022/11/27 02:02:51;;;;;;;;;88.67;65.00;;;;;11.14;59.42;100563.47;5056501;28;9193;-76
2022/11/27 02:05:23;;;;;;;;;84.67;67.00;;;;;11.22;58.96;100564.44;5091654;28;9450;-75
2022/11/27 02:07:53;;;;;;;;;85.33;66.33;;;;;11.25;58.46;100564.47;5090791;28;9399;-74
2022/11/27 02:10:27;;;;;;;;;90.00;69.33;;;;;11.22;58.36;100562.69;5052678;28;9211;-75
2022/11/27 02:13:03;;;;;;;;;90.67;73.00;;;;;11.28;58.13;100560.16;5071238;28;9388;-74
2022/11/27 02:15:42;;;;;;;;;85.67;66.00;;;;;11.32;59.20;100559.34;5071330;28;9347;-76
2022/11/27 02:18:18;;;;;;;;;71.67;57.67;;;;;11.32;58.73;100548.91;5075675;28;9244;-76
2022/11/27 02:20:58;;;;;;;;;94.50;80.25;;;;;11.45;58.45;100546.44;5091251;28;9122;-74
2022/11/27 02:23:56;;;;;;;;;93.00;75.75;;;;;11.49;57.74;100553.44;5091200;28;9588;-74
2022/11/27 02:26:42;;;;;;;;;96.75;79.50;;;;;11.45;58.05;100554.25;5090860;28;9744;-75
2022/11/27 02:29:14;;;;;;;;;91.50;69.25;;;;;11.38;58.22;100555.03;5081332;28;9813;-75
2022/11/27 02:31:51;;;;;;;;;93.00;76.25;;;;;11.48;58.39;100544.72;5068995;28;9822;-75
2022/11/27 02:34:27;;;;;;;;;97.00;81.50;;;;;11.51;58.50;100549.09;5034886;28;9706;-75
2022/11/27 02:37:02;;;;;;;;;90.25;68.75;;;;;11.45;57.47;100557.75;5099253;28;9572;-75
2022/11/27 02:39:38;;;;;;;;;92.25;74.00;;;;;11.45;57.48;100552.53;5076081;28;10156;-77
2022/11/27 02:42:15;;;;;;;;;96.00;81.50;;;;;11.28;58.50;100551.44;5111563;28;9712;-75
2022/11/27 02:44:49;;;;;;;;;99.50;81.25;;;;;11.30;58.04;100549.72;5104452;28;9889;-75
2022/11/27 02:47:19;;;;;;;;;98.25;86.25;;;;;11.33;57.42;100549.78;5073460;28;10816;-74
2022/11/27 02:49:51;;;;;;;;;98.00;82.75;;;;;11.35;57.47;100550.66;5087358;28;9737;-74
2022/11/27 02:52:20;;;;;;;;;90.25;77.75;;;;;11.35;57.59;100540.22;5084931;28;9851;-77
2022/11/27 02:54:51;;;;;;;;;92.50;79.00;;;;;11.42;57.77;100541.19;5090205;28;9710;-75
2022/11/27 02:57:23;;;;;;;;;90.75;72.75;;;;;11.40;57.50;100545.50;5091574;28;9883;-76
2022/11/27 02:59:56;;;;;;;;;95.25;80.00;;;;;11.47;57.57;100542.09;5042892;28;9892;-75
2022/11/27 03:02:30;;;;;;;;;93.75;81.00;;;;;11.48;57.81;100539.50;5070078;28;10140;-74
2022/11/27 03:05:02;;;;;;;;;94.00;81.00;;;;;11.39;57.24;100544.63;5068963;28;10171;-75
2022/11/27 03:07:37;;;;;;;;;92.25;73.00;;;;;11.27;57.40;100544.47;5069929;28;9803;-74
2022/11/27 03:10:12;;;;;;;;;95.50;78.75;;;;;11.30;58.22;100542.78;5084824;28;9971;-74
2022/11/27 03:12:41;;;;;;;;;95.50;81.25;;;;;11.35;57.62;100541.97;5071566;28;9733;-75
2022/11/27 03:15:12;;;;;;;;;96.50;78.00;;;;;11.37;57.59;100540.25;5089690;28;9830;-75
2022/11/27 03:17:51;;;;;;;;;92.25;70.75;;;;;11.39;57.80;100536.78;5089942;28;10299;-74
2022/11/27 03:20:24;;;;;;;;;91.00;74.75;;;;;11.17;58.08;100540.88;5089819;28;9730;-74
2022/11/27 03:22:53;;;;;;;;;110.50;94.25;;;;;11.18;57.79;100545.22;5122323;27;9623;-75
2022/11/27 03:25:23;;;;;;;;;101.25;90.50;;;;;11.22;57.84;100549.63;5089363;28;10382;-73
2022/11/27 03:27:56;;;;;;;;;103.00;92.00;;;;;11.32;58.08;100551.53;5087136;28;10118;-75
2022/11/27 03:30:26;;;;;;;;;98.25;83.75;;;;;11.32;57.89;100548.91;5088999;28;9988;-75
2022/11/27 03:32:55;;;;;;;;;97.75;78.25;;;;;11.32;57.82;100550.63;5089680;28;9726;-76
2022/11/27 03:35:26;;;;;;;;;94.00;75.25;;;;;11.34;57.99;100545.41;5080629;28;9920;-76
2022/11/27 03:37:56;;;;;;;;;91.50;77.50;;;;;11.43;57.72;100559.47;5069601;28;9783;-75
2022/11/27 03:40:35;;;;;;;;;97.25;79.25;;;;;11.59;56.74;100539.66;5077797;28;9709;-76
2022/11/27 03:43:11;;;;;;;;;93.00;81.00;;;;;11.58;56.97;100545.72;5087392;28;9692;-75
2022/11/27 03:45:47;;;;;;;;;90.33;71.67;;;;;11.62;57.25;100539.66;5093682;28;9481;-74
2022/11/27 03:48:24;;;;;;;;;91.50;66.50;;;;;11.60;56.70;100537.91;5098267;28;9302;-73
2022/11/27 03:51:06;;;;;;;;;87.67;66.67;;;;;11.42;57.44;100546.41;5089124;28;9587;-75
2022/11/27 03:53:50;;;;;;;;;91.75;72.75;;;;;11.07;58.40;100546.81;5089358;28;9423;-74
2022/11/27 03:56:32;;;;;;;;;89.67;68.33;;;;;11.19;57.91;100551.31;5088632;28;9662;-74
2022/11/27 03:59:06;;;;;;;;;92.25;75.75;;;;;11.23;58.10;100547.91;5068882;28;9169;-76
2022/11/27 04:01:36;;;;;;;;;94.00;72.75;;;;;10.99;58.81;100538.03;5086938;28;9563;-76
2022/11/27 04:04:06;;;;;;;;;94.33;75.00;;;;;10.92;59.13;100548.34;5103365;28;9892;-76
2022/11/27 04:06:34;;;;;;;;;91.50;74.50;;;;;11.04;58.48;100552.00;5089375;28;9418;-75
2022/11/27 04:09:03;;;;;;;;;93.00;74.33;;;;;11.07;58.95;100545.06;5088760;28;9401;-75
2022/11/27 04:11:32;;;;;;;;;90.33;74.00;;;;;10.99;59.17;100549.31;5073697;28;9482;-74
2022/11/27 04:14:01;;;;;;;;;91.67;73.00;;;;;10.97;59.02;100547.56;5050272;28;9430;-74
2022/11/27 04:16:29;;;;;;;;;88.33;72.33;;;;;11.11;58.65;100551.22;5053148;28;9257;-76
2022/11/27 04:19:00;;;;;;;;;87.67;68.33;;;;;11.24;58.15;100544.44;5068380;28;9410;-75
2022/11/27 04:21:28;;;;;;;;;90.33;73.33;;;;;11.34;58.13;100546.28;5068519;28;9095;-74
2022/11/27 04:23:57;;;;;;;;;90.67;67.33;;;;;11.36;57.92;100541.09;5050718;28;9244;-75
2022/11/27 04:26:25;;;;;;;;;83.33;65.00;;;;;11.48;58.05;100536.03;5059874;28;9028;-75
2022/11/27 04:28:54;;;;;;;;;90.67;68.67;;;;;11.53;58.06;100547.41;5071032;28;9226;-75
2022/11/27 04:31:22;;;;;;;;;87.00;65.67;;;;;11.59;57.70;100544.88;5103657;28;9261;-75
2022/11/27 04:33:51;;;;;;;;;88.67;71.00;;;;;11.54;56.60;100545.69;5100723;28;8934;-74
2022/11/27 04:36:21;;;;;;;;;86.67;66.00;;;;;11.59;57.46;100549.22;5102697;28;9256;-75
2022/11/27 04:38:50;;;;;;;;;88.00;66.00;;;;;11.63;57.03;100548.41;5105506;28;8953;-74
2022/11/27 04:41:18;;;;;;;;;82.00;63.00;;;;;11.70;56.61;100556.31;5068853;28;9271;-74
2022/11/27 04:43:47;;;;;;;;;94.33;74.67;;;;;11.70;56.20;100556.31;5068509;28;9008;-74
2022/11/27 04:46:15;;;;;;;;;86.33;64.67;;;;;11.74;57.14;100558.94;5043804;28;9190;-74
2022/11/27 04:48:44;;;;;;;;;85.33;65.00;;;;;11.78;57.11;100558.16;5087097;28;10069;-75
2022/11/27 04:51:12;;;;;;;;;85.00;66.00;;;;;11.38;57.58;100560.25;5086824;28;9189;-75
2022/11/27 04:53:42;;;;;;;;;85.67;69.33;;;;;10.68;60.00;100561.94;5091243;28;8938;-74
2022/11/27 04:56:11;;;;;;;;;87.67;67.67;;;;;10.04;62.14;100569.53;5092555;28;9270;-74
2022/11/27 04:58:39;;;;;;;;;65.00;50.33;;;;;9.48;64.50;100564.97;5088216;28;9914;-75
2022/11/27 05:01:08;;;;;;;;;88.00;68.75;;;;;9.41;64.85;100570.00;5086543;28;9351;-75
2022/11/27 05:03:37;;;;;;;;;88.50;66.75;;;;;9.35;65.16;100560.34;5086981;28;8988;-74
2022/11/27 05:06:06;;;;;;;;;84.00;65.33;;;;;9.33;65.26;100565.53;5088298;28;8855;-75
2022/11/27 05:08:35;;;;;;;;;85.67;66.67;;;;;9.27;66.29;100573.22;5086994;28;9077;-75
2022/11/27 05:11:07;;;;;;;;;90.67;71.33;;;;;9.21;66.72;100560.06;5069843;28;8955;-75
2022/11/27 05:13:36;;;;;;;;;92.67;71.00;;;;;8.94;67.38;100560.31;5088035;28;9177;-75
2022/11/27 05:16:05;;;;;;;;;86.00;67.67;;;;;8.82;67.73;100565.28;5051631;28;9250;-74
2022/11/27 05:18:34;;;;;;;;;94.67;71.67;;;;;8.23;71.22;100558.63;5088127;28;9162;-74
2022/11/27 05:21:05;;;;;;;;;88.33;65.00;;;;;7.90;72.68;100566.41;5086438;28;9092;-74
2022/11/27 05:23:34;;;;;;;;;92.67;77.00;;;;;7.96;73.01;100564.88;5068701;28;9327;-74
2022/11/27 05:26:04;;;;;;;;;94.67;69.00;;;;;8.42;71.79;100560.00;5087595;28;9415;-74
2022/11/27 05:28:33;;;;;;;;;94.67;73.00;;;;;8.39;71.71;100565.97;5067811;28;9166;-75
2022/11/27 05:31:02;;;;;;;;;81.67;63.67;;;;;8.76;70.63;100560.81;5068287;28;9957;-73
2022/11/27 05:33:30;;;;;;;;;90.67;69.67;;;;;9.09;68.73;100552.88;5051955;28;9162;-74
2022/11/27 05:35:59;;;;;;;;;86.00;66.33;;;;;9.47;67.70;100552.81;5086221;28;9009;-74
2022/11/27 05:38:28;;;;;;;;;91.00;71.33;;;;;9.79;66.90;100551.66;5052327;28;9170;-73
2022/11/27 05:40:56;;;;;;;;;91.33;74.67;;;;;9.61;66.76;100545.25;5088598;28;9383;-75
2022/11/27 05:43:26;;;;;;;;;90.67;66.33;;;;;9.84;65.84;100557.84;5101661;28;9323;-74
2022/11/27 05:45:55;;;;;;;;;90.00;67.00;;;;;10.05;65.20;100554.75;5087977;28;9172;-74
2022/11/27 05:48:23;;;;;;;;;91.00;66.00;;;;;10.25;64.23;100562.94;5069551;28;9032;-75
2022/11/27 05:50:52;;;;;;;;;89.33;67.33;;;;;9.96;65.16;100560.66;5067168;28;9103;-74
2022/11/27 05:53:21;;;;;;;;;91.67;66.33;;;;;9.94;65.44;100562.38;5080448;28;9470;-76
2022/11/27 05:55:49;;;;;;;;;92.67;74.00;;;;;10.14;64.37;100571.44;5085888;28;9323;-74
2022/11/27 05:58:18;;;;;;;;;91.67;71.67;;;;;9.68;66.04;100573.19;5085770;28;9247;-75
2022/11/27 06:00:47;;;;;;;;;97.25;78.00;;;;;9.37;67.45;100574.28;5067259;28;9319;-75
2022/11/27 06:03:16;;;;;;;;;95.50;76.25;;;;;9.01;69.01;100577.84;5047958;28;9543;-74
2022/11/27 06:05:45;;;;;;;;;98.00;68.00;;;;;8.81;70.40;100585.22;5064802;28;9515;-75
2022/11/27 06:08:13;;;;;;;;;89.00;69.00;;;;;9.20;68.71;100579.13;5067445;28;9393;-75
2022/11/27 06:10:42;;;;;;;;;93.67;72.67;;;;;9.60;67.65;100592.09;5067883;28;9320;-76
2022/11/27 06:13:11;;;;;;;;;92.67;69.67;;;;;9.74;66.86;100588.06;5066273;28;9237;-75
2022/11/27 06:15:40;;;;;;;;;92.00;73.67;;;;;9.89;66.59;100590.94;5067560;28;9109;-74
2022/11/27 06:18:12;;;;;;;;;94.00;71.67;;;;;10.21;65.41;100589.78;5067510;28;9235;-76
2022/11/27 06:20:40;;;;;;;;;93.00;70.67;;;;;9.75;66.56;100590.69;5064695;28;9206;-75
2022/11/27 06:23:13;;;;;;;;;92.00;67.00;;;;;9.81;66.40;100587.34;5067416;28;9323;-73
2022/11/27 06:25:41;;;;;;;;;86.00;63.67;;;;;9.91;66.14;100593.59;5066755;28;9121;-74
2022/11/27 06:28:10;;;;;;;;;93.67;69.67;;;;;10.02;65.92;100594.69;5083504;28;9173;-74
2022/11/27 06:30:39;;;;;;;;;92.25;71.00;;;;;10.33;65.07;100590.03;5085823;28;9309;-75
2022/11/27 06:33:07;;;;;;;;;87.00;70.67;;;;;10.47;64.48;100585.94;5087891;28;9552;-74
2022/11/27 06:35:37;;;;;;;;;97.75;76.50;;;;;10.01;65.51;100597.25;5087453;28;9406;-76
2022/11/27 06:38:06;;;;;;;;;94.33;71.33;;;;;9.41;67.67;100596.91;5036270;28;9592;-75
2022/11/27 06:40:34;;;;;;;;;89.33;67.33;;;;;9.08;69.23;100603.16;5069691;28;9427;-74
2022/11/27 06:43:03;;;;;;;;;89.33;76.33;;;;;8.89;70.04;100611.38;5070400;28;9085;-77
2022/11/27 06:45:31;;;;;;;;;86.67;71.33;;;;;8.86;70.38;100606.97;5090213;28;9339;-76
2022/11/27 06:48:00;;;;;;;;;94.33;72.00;;;;;8.49;72.04;100618.22;5089407;28;9266;-74
2022/11/27 06:50:28;;;;;;;;;90.00;72.00;;;;;8.16;73.74;100619.94;5089816;28;9293;-75
2022/11/27 06:52:59;;;;;;;;;91.67;67.33;;;;;7.97;74.64;100622.88;5074857;28;9489;-76
2022/11/27 06:55:27;;;;;;;;;96.00;69.33;;;;;8.36;73.06;100611.78;5053839;28;9194;-75
2022/11/27 06:57:56;;;;;;;;;90.33;70.67;;;;;8.91;70.92;100609.69;5083943;28;9319;-76
2022/11/27 07:00:24;;;;;;;;;85.00;66.67;;;;;9.33;69.37;100614.97;5042819;28;9459;-76
2022/11/27 07:02:54;;;;;;;;;85.00;64.00;;;;;9.69;68.40;100607.91;5090318;28;9110;-74
2022/11/27 07:05:24;;;;;;;;;88.67;67.33;;;;;9.83;66.98;100598.66;5089933;28;8984;-76
2022/11/27 07:07:52;;;;;;;;;88.25;66.25;;;;;10.05;66.12;100599.91;5089898;28;9042;-75
2022/11/27 07:10:22;;;;;;;;;85.33;67.67;;;;;10.08;65.57;100610.41;5090041;28;8910;-76
2022/11/27 07:12:51;;;;;;;;;78.33;59.33;;;;;10.30;64.89;100603.91;5080627;28;9021;-77
2022/11/27 07:15:19;;;;;;;;;81.50;62.50;;;;;10.50;64.17;100598.16;5068471;28;11021;-76
2022/11/27 07:17:48;;;;;;;;;87.00;65.00;;;;;10.71;63.55;100595.00;5077554;28;8904;-77
2022/11/27 07:20:17;;;;;;;;;79.50;64.00;;;;;10.71;62.77;100602.84;5069696;28;9735;-76
2022/11/27 07:22:45;;;;;;;;;93.00;72.25;;;;;10.52;63.09;100593.81;5033952;28;8999;-76
2022/11/27 07:25:14;;;;;;;;;82.67;64.00;;;;;9.66;66.30;100603.53;5069581;28;9655;-74
2022/11/27 07:27:44;;;;;;;;;84.00;64.67;;;;;9.65;66.66;100604.38;5068850;28;9130;-75
2022/11/27 07:30:14;;;;;;;;;93.00;77.67;;;;;9.78;66.34;100602.91;5068892;28;9870;-76
2022/11/27 07:32:42;;;;;;;;;95.75;76.25;;;;;10.08;65.53;100596.53;5076408;28;9363;-76
2022/11/27 07:35:11;;;;;;;;;85.75;65.25;;;;;9.64;66.68;100602.63;5070512;28;9654;-76
2022/11/27 07:37:39;;;;;;;;;86.00;64.25;;;;;9.93;65.97;100591.91;5077969;28;8843;-75
2022/11/27 07:40:08;;;;;;;;;85.25;64.75;;;;;9.92;65.94;100591.03;5068958;28;8908;-74
2022/11/27 07:42:37;;;;;;;;;106.25;84.75;;;;;10.26;64.78;100595.94;5069544;28;8846;-74
2022/11/27 07:45:09;;;;;;;;;101.50;91.25;;;;;10.56;64.07;100593.03;5069469;28;10146;-75
2022/11/27 07:47:38;;;;;;;;;84.00;65.00;;;;;10.64;63.43;100595.75;5058708;28;10165;-77
2022/11/27 07:50:08;;;;;;;;;84.50;64.25;;;;;10.60;62.89;100596.56;5093027;28;9010;-75
2022/11/27 07:52:38;;;;;;;;;87.25;65.75;;;;;10.76;62.92;100592.50;5093895;28;8875;-74
2022/11/27 07:55:10;;;;;;;;;82.75;62.75;;;;;10.91;62.34;100596.19;5053895;28;8863;-75
2022/11/27 07:57:41;;;;;;;;;83.75;64.00;;;;;11.12;62.34;100584.31;5097803;28;8860;-74
2022/11/27 08:00:12;;;;;;;;;87.75;66.00;;;;;11.26;62.03;100585.34;5088987;28;9686;-76
2022/11/27 08:02:40;;;;;;;;;96.00;78.25;;;;;11.44;61.55;100589.09;5074616;28;8866;-75
2022/11/27 08:05:09;;;;;;;;;117.00;103.25;;;;;11.54;61.76;100588.34;5068592;28;10203;-75
2022/11/27 08:07:41;;;;;;;;;94.75;74.00;;;;;11.67;61.13;100585.00;5067391;28;10864;-76
2022/11/27 08:10:09;;;;;;;;;88.67;68.00;;;;;11.83;59.92;100573.03;5106391;27;9781;-76
2022/11/27 08:12:38;;;;;;;;;82.00;63.25;;;;;11.90;59.31;100577.47;5074759;28;9087;-75
2022/11/27 08:15:08;;;;;;;;;84.50;64.75;;;;;12.05;59.03;100570.66;5067985;28;8918;-77
2022/11/27 08:17:39;;;;;;;;;84.00;62.50;;;;;12.24;59.06;100566.47;5062911;28;8878;-78
2022/11/27 08:20:08;;;;;;;;;83.25;64.25;;;;;12.25;58.46;100560.38;5088377;28;8880;-76
2022/11/27 08:22:37;;;;;;;;;85.00;62.25;;;;;12.17;58.37;100562.91;5079274;28;8836;-77
2022/11/27 08:25:06;;;;;;;;;130.50;110.00;;;;;11.80;59.17;100575.59;5099926;28;8878;-76
2022/11/27 08:27:35;;;;;;;;;93.33;66.67;;;;;11.58;59.64;100571.84;5067843;28;10894;-75
2022/11/27 08:30:05;;;;;;;;;87.67;65.67;;;;;11.67;59.80;100578.91;5085555;28;9088;-77
2022/11/27 08:32:34;;;;;;;;;89.33;69.33;;;;;11.95;59.45;100574.91;5084428;28;9172;-77
2022/11/27 08:35:04;;;;;;;;;84.00;63.33;;;;;12.16;58.43;100573.38;5071936;28;9187;-74
2022/11/27 08:37:33;;;;;;;;;88.33;67.00;;;;;12.33;58.30;100565.69;5077428;28;9178;-75
2022/11/27 08:40:02;;;;;;;;;88.67;74.00;;;;;12.42;57.61;100564.03;5082950;28;9392;-76
2022/11/27 08:42:31;;;;;;;;;87.33;67.67;;;;;12.52;57.91;100569.34;5087351;28;9652;-75
2022/11/27 08:44:59;;;;;;;;;99.00;85.00;;;;;12.59;56.71;100569.38;5081707;28;9367;-76
2022/11/27 08:47:28;;;;;;;;;92.75;78.00;;;;;12.70;56.63;100577.28;5041422;28;10222;-75
2022/11/27 08:49:56;;;;;;;;;105.00;88.25;;;;;12.82;56.76;100569.53;5074132;28;9765;-76
2022/11/27 08:52:26;;;;;;;;;97.75;83.00;;;;;12.41;56.28;100575.34;5080991;28;10911;-77
2022/11/27 08:54:55;;;;;;;;;94.00;81.25;;;;;12.64;56.21;100570.28;5075946;28;9975;-76
2022/11/27 08:57:25;;;;;;;;;91.50;78.00;;;;;12.79;55.99;100566.91;5067561;28;9776;-76
2022/11/27 08:59:54;;;;;;;;;99.00;88.00;;;;;12.84;56.10;100562.56;5079994;28;9563;-75
2022/11/27 09:02:22;;;;;;;;;109.75;97.00;;;;;12.93;55.99;100567.00;5066197;28;10267;-76
2022/11/27 09:04:51;;;;;;;;;89.75;72.00;;;;;13.01;55.28;100565.31;5067382;28;10956;-76
2022/11/27 09:07:20;;;;;;;;;90.00;70.75;;;;;12.90;55.16;100561.75;5066164;28;9574;-76
2022/11/27 09:09:50;;;;;;;;;89.00;75.25;;;;;12.95;55.48;100559.13;5065323;28;9642;-76
2022/11/27 09:12:18;;;;;;;;;86.67;71.33;;;;;13.01;55.16;100567.91;5068980;28;9471;-74
2022/11/27 09:14:47;;;;;;;;;88.33;69.67;;;;;13.08;55.48;100561.00;5077065;28;9322;-75
2022/11/27 09:17:16;;;;;;;;;87.33;73.33;;;;;13.16;55.27;100556.66;5086956;28;9312;-77
2022/11/27 09:19:44;;;;;;;;;86.67;67.00;;;;;13.04;54.84;100552.25;5087579;28;9335;-76
2022/11/27 09:22:13;;;;;;;;;83.00;64.67;;;;;13.11;54.97;100555.75;5085039;28;8960;-75
2022/11/27 09:24:41;;;;;;;;;97.75;84.25;;;;;13.17;54.54;100545.28;5078389;28;9766;-76
2022/11/27 09:27:12;;;;;;;;;92.00;78.75;;;;;13.23;54.52;100549.69;5118987;28;10133;-75
2022/11/27 09:29:40;;;;;;;;;83.33;64.33;;;;;13.03;53.98;100542.63;5080393;28;10109;-76
2022/11/27 09:32:09;;;;;;;;;82.00;62.67;;;;;13.14;54.20;100541.81;5066333;28;9049;-76
2022/11/27 09:34:37;;;;;;;;;86.33;66.33;;;;;13.20;54.42;100537.47;5091223;28;9098;-76
2022/11/27 09:37:07;;;;;;;;;87.67;64.67;;;;;13.29;53.93;100535.75;5100825;28;9042;-77
2022/11/27 09:39:36;;;;;;;;;86.00;68.00;;;;;13.08;53.22;100532.19;5073865;28;8961;-79
2022/11/27 09:42:08;;;;;;;;;84.25;67.75;;;;;13.05;53.59;100530.41;5036061;28;9253;-77
2022/11/27 09:44:44;;;;;;;;;79.75;62.75;;;;;13.21;53.70;100535.72;5067658;28;8873;-77
2022/11/27 09:47:19;;;;;;;;;85.67;65.33;;;;;12.68;54.17;100532.81;5069169;28;8887;-78
2022/11/27 09:49:51;;;;;;;;;95.00;79.00;;;;;12.24;55.89;100533.34;5052874;28;9441;-79
2022/11/27 09:52:24;;;;;;;;;132.75;118.50;;;;;12.22;56.38;100529.84;5119765;28;10840;-76
2022/11/27 09:54:57;;;;;;;;;83.67;64.33;;;;;11.47;58.29;100534.25;5065803;28;11564;-73
2022/11/27 09:57:31;;;;;;;;;87.67;69.67;;;;;11.82;57.92;100520.72;5079774;28;9092;-76
2022/11/27 10:00:05;;;;;;;;;89.33;71.67;;;;;12.24;57.31;100516.78;5087776;28;9400;-78
2022/11/27 10:02:35;;;;;;;;;83.00;63.33;;;;;12.50;57.03;100514.38;5085595;28;9197;-76
2022/11/27 10:05:13;;;;;;;;;95.33;76.33;;;;;12.75;56.58;100512.78;5067670;28;9383;-77
2022/11/27 10:08:06;;;;;;;;;87.33;66.33;;;;;13.05;55.70;100508.59;5070720;28;9328;-77
2022/11/27 10:10:43;;;;;;;;;81.00;62.75;;;;;13.21;54.50;100501.66;5074097;28;9000;-76
2022/11/27 10:13:33;;;;;;;;;84.67;63.33;;;;;13.36;54.01;100495.66;5069522;28;8843;-77
2022/11/27 10:16:13;;;;;;;;;87.33;67.67;;;;;13.46;53.53;100494.81;5091262;28;9806;-76
2022/11/27 10:18:46;;;;;;;;;87.00;67.33;;;;;13.52;53.02;100488.72;5086835;28;9164;-76
2022/11/27 10:21:21;;;;;;;;;81.33;63.67;;;;;13.53;52.75;100485.22;5087455;28;8928;-75
2022/11/27 10:23:59;;;;;;;;;90.33;67.00;;;;;13.57;52.55;100489.59;5071296;28;9072;-77
2022/11/27 10:26:33;;;;;;;;;87.33;73.00;;;;;13.49;52.89;100489.56;5086296;28;9027;-75
2022/11/27 10:29:11;;;;;;;;;82.67;67.00;;;;;13.51;53.05;100484.34;5080658;28;9168;-75
2022/11/27 10:31:49;;;;;;;;;85.67;65.00;;;;;13.56;52.74;100480.00;5115005;28;9192;-76
2022/11/27 10:34:29;;;;;;;;;84.00;64.00;;;;;13.42;52.54;100474.69;5073183;28;8981;-78
2022/11/27 10:37:02;;;;;;;;;57.25;41.00;;;;;13.46;52.62;100476.47;5078517;28;8902;-77
2022/11/27 10:39:36;;;;;;;;;75.75;58.50;;;;;13.54;52.34;100472.13;5070564;28;8866;-76
2022/11/27 10:42:10;;;;;;;;;81.00;61.25;;;;;13.64;52.24;100468.63;5070249;28;8965;-75
2022/11/27 10:44:44;;;;;;;;;77.50;60.50;;;;;13.67;51.98;100462.53;5084021;28;9659;-78
2022/11/27 10:47:15;;;;;;;;;79.50;61.75;;;;;13.76;51.69;100466.91;5090782;28;8883;-76
2022/11/27 10:49:44;;;;;;;;;82.50;58.00;;;;;13.82;51.62;100475.66;5090326;28;8909;-76
2022/11/27 10:52:15;;;;;;;;;80.75;63.00;;;;;13.84;51.40;100468.69;5088218;28;8866;-77
2022/11/27 10:54:49;;;;;;;;;79.67;62.33;;;;;13.81;51.92;100471.28;5055616;28;8851;-77
2022/11/27 10:57:43;;;;;;;;;84.67;65.67;;;;;13.88;51.69;100461.69;5090419;28;9080;-76
2022/11/27 11:00:18;;;;;;;;;90.67;73.33;;;;;13.75;52.84;100465.19;5089108;28;9013;-69
2022/11/27 11:02:49;;;;;;;;;89.25;70.00;;;;;13.70;53.30;100462.53;5089623;28;9361;-66
2022/11/27 11:05:23;;;;;;;;;91.33;70.00;;;;;13.64;53.61;100466.03;5077708;28;10705;-79
2022/11/27 11:08:18;;;;;;;;;85.67;65.00;;;;;13.53;53.87;100465.13;5080279;28;9499;-71
2022/11/27 11:10:52;;;;;;;;;84.67;64.67;;;;;13.33;54.01;100465.09;5083543;28;8916;-80
2022/11/27 11:13:26;;;;;;;;;84.75;64.00;;;;;13.28;54.22;100466.78;5088943;28;8941;-77
2022/11/27 11:15:58;;;;;;;;;86.33;69.67;;;;;13.29;54.50;100465.91;5093565;28;9611;-77
2022/11/27 11:18:30;;;;;;;;;90.00;70.67;;;;;12.82;55.49;100470.09;5085405;28;9085;-78
2022/11/27 11:21:01;;;;;;;;;85.67;65.33;;;;;12.74;56.22;100463.94;5095261;28;9122;-78
2022/11/27 11:23:33;;;;;;;;;86.67;68.00;;;;;12.61;56.22;100459.50;5104465;28;9090;-79
2022/11/27 11:26:14;;;;;;;;;87.33;71.67;;;;;12.68;56.85;100466.50;5086145;28;9156;-79
2022/11/27 11:28:50;;;;;;;;;86.00;64.33;;;;;12.63;56.41;100461.25;5085112;28;9347;-79
2022/11/27 11:31:21;;;;;;;;;87.67;70.67;;;;;12.54;57.41;100453.34;5084802;28;9094;-77
2022/11/27 11:33:58;;;;;;;;;83.67;64.67;;;;;12.48;56.95;100464.66;5088191;28;9098;-80
2022/11/27 11:36:27;;;;;;;;;85.67;63.67;;;;;12.55;57.26;100455.13;5069435;28;8916;-80